createdAt,value
2019-02-24T00:01:23.560Z,7.33
2019-02-24T00:03:52.088Z,4.03
2019-02-24T00:06:20.540Z,7.27
2019-02-24T00:08:49.115Z,4.00
2019-02-24T00:11:17.686Z,3.90
2019-02-24T00:13:46.153Z,13.20
2019-02-24T00:16:14.657Z,6.37
2019-02-24T00:18:43.109Z,3.87
2019-02-24T00:21:11.606Z,4.23
2019-02-24T00:23:40.145Z,5.17
2019-02-24T00:26:08.638Z,2.47
2019-02-24T00:28:37.183Z,5.37
2019-02-24T00:31:05.740Z,4.77
2019-02-24T00:33:34.197Z,6.33
2019-02-24T00:36:02.703Z,8.27
2019-02-24T00:38:31.221Z,4.03
2019-02-24T00:40:59.681Z,4.53
2019-02-24T00:43:28.178Z,4.40
2019-02-24T00:45:56.634Z,5.10
2019-02-24T00:48:25.127Z,5.03
2019-02-24T00:50:53.597Z,3.47
2019-02-24T00:53:22.102Z,4.93
2019-02-24T00:55:50.562Z,7.07
2019-02-24T00:58:19.130Z,5.30
2019-02-24T01:00:47.758Z,3.63
2019-02-24T01:03:16.240Z,7.73
2019-02-24T01:05:44.804Z,5.37
2019-02-24T01:08:13.352Z,4.93
2019-02-24T01:10:41.835Z,5.78
2019-02-24T01:13:10.292Z,6.50
2019-02-24T01:15:38.785Z,4.20
2019-02-24T01:18:07.321Z,3.20
2019-02-24T01:20:35.817Z,5.93
2019-02-24T01:23:04.366Z,6.13
2019-02-24T01:25:32.870Z,10.13
2019-02-24T01:28:01.377Z,4.90
2019-02-24T01:30:29.903Z,4.22
2019-02-24T01:32:58.457Z,4.80
2019-02-24T01:35:27.029Z,4.97
2019-02-24T01:37:55.563Z,6.50
2019-02-24T01:40:24.140Z,6.83
2019-02-24T01:42:52.762Z,4.70
2019-02-24T01:45:21.264Z,4.75
2019-02-24T01:47:49.732Z,6.93
2019-02-24T01:50:18.216Z,5.47
2019-02-24T01:52:46.703Z,5.47
2019-02-24T01:55:15.239Z,3.77
2019-02-24T01:57:43.706Z,6.33
2019-02-24T02:00:12.312Z,5.25
2019-02-24T02:02:40.861Z,6.60
2019-02-24T02:05:09.511Z,4.97
2019-02-24T02:07:38.056Z,5.58
2019-02-24T02:10:06.824Z,3.30
2019-02-24T02:12:35.318Z,5.47
2019-02-24T02:15:04.284Z,5.30
2019-02-24T02:17:32.779Z,7.47
2019-02-24T02:20:01.249Z,4.27
2019-02-24T02:22:29.879Z,6.77
2019-02-24T02:24:58.454Z,4.83
2019-02-24T02:27:27.897Z,7.60
2019-02-24T02:29:56.399Z,4.60
2019-02-24T02:32:24.895Z,8.73
2019-02-24T02:34:53.353Z,4.83
2019-02-24T02:37:21.813Z,7.90
2019-02-24T02:39:50.282Z,6.00
2019-02-24T02:42:18.759Z,6.43
2019-02-24T02:44:47.248Z,4.40
2019-02-24T02:47:15.712Z,7.50
2019-02-24T02:49:44.256Z,6.30
2019-02-24T02:52:12.789Z,7.33
2019-02-24T02:54:41.322Z,5.20
2019-02-24T02:57:09.800Z,8.37
2019-02-24T02:59:38.292Z,4.40
2019-02-24T03:02:06.758Z,4.53
2019-02-24T03:04:35.246Z,5.10
2019-02-24T03:07:08.044Z,5.60
2019-02-24T03:09:36.530Z,5.13
2019-02-24T03:12:05.006Z,3.77
2019-02-24T03:14:33.624Z,5.80
2019-02-24T03:17:02.110Z,5.33
2019-02-24T03:19:30.673Z,3.80
2019-02-24T03:21:59.162Z,12.17
2019-02-24T03:24:27.644Z,5.30
2019-02-24T03:26:56.117Z,6.40
2019-02-24T03:29:24.687Z,5.22
2019-02-24T03:31:53.172Z,5.00
2019-02-24T03:34:21.632Z,4.07
2019-02-24T03:36:50.270Z,3.03
2019-02-24T03:39:18.802Z,8.03
2019-02-24T03:41:47.287Z,5.60
2019-02-24T03:44:15.863Z,4.55
2019-02-24T03:46:44.329Z,3.70
2019-02-24T03:49:12.901Z,4.00
2019-02-24T03:51:41.361Z,5.67
2019-02-24T03:54:09.894Z,3.87
2019-02-24T03:56:38.589Z,4.30
2019-02-24T03:59:14.738Z,5.23
2019-02-24T04:01:37.573Z,4.63
2019-02-24T04:04:06.088Z,5.33
2019-02-24T04:06:34.595Z,4.43
2019-02-24T04:09:03.588Z,10.27
2019-02-24T04:11:32.120Z,5.93
2019-02-24T04:14:00.652Z,6.43
2019-02-24T04:16:29.247Z,7.00
2019-02-24T04:18:57.781Z,3.85
2019-02-24T04:21:26.259Z,7.03
2019-02-24T04:23:54.751Z,9.33
2019-02-24T04:26:23.222Z,4.27
2019-02-24T04:28:51.677Z,7.30
2019-02-24T04:31:20.173Z,6.77
2019-02-24T04:33:48.670Z,6.33
2019-02-24T04:36:17.173Z,4.90
2019-02-24T04:38:45.642Z,5.53
2019-02-24T04:41:14.090Z,4.80
2019-02-24T04:43:42.590Z,5.37
2019-02-24T04:46:11.159Z,5.13
2019-02-24T04:48:39.618Z,5.27
2019-02-24T04:51:08.185Z,7.93
2019-02-24T04:53:36.731Z,6.83
2019-02-24T04:56:05.305Z,4.87
2019-02-24T04:58:33.756Z,4.17
2019-02-24T05:01:02.212Z,4.17
2019-02-24T05:03:30.687Z,4.60
2019-02-24T05:05:59.141Z,6.90
2019-02-24T05:08:27.632Z,4.87
2019-02-24T05:10:56.161Z,5.17
2019-02-24T05:13:24.690Z,7.33
2019-02-24T05:15:53.200Z,9.83
2019-02-24T05:18:21.709Z,13.30
2019-02-24T05:20:50.178Z,22.30
2019-02-24T05:23:18.644Z,17.73
2019-02-24T05:25:47.160Z,14.03
2019-02-24T05:28:15.644Z,10.20
2019-02-24T05:30:44.210Z,6.67
2019-02-24T05:33:12.674Z,5.27
2019-02-24T05:35:41.168Z,5.50
2019-02-24T05:38:09.661Z,7.40
2019-02-24T05:40:38.158Z,15.80
2019-02-24T05:43:06.643Z,16.60
2019-02-24T05:45:35.146Z,24.63
2019-02-24T05:48:03.658Z,38.40
2019-02-24T05:50:32.288Z,15.75
2019-02-24T05:53:00.762Z,14.27
2019-02-24T05:55:29.215Z,11.33
2019-02-24T05:57:57.713Z,7.53
2019-02-24T06:00:26.212Z,3.80
2019-02-24T06:02:54.704Z,4.08
2019-02-24T06:05:23.232Z,6.62
2019-02-24T06:07:51.725Z,5.00
2019-02-24T06:10:20.290Z,7.57
2019-02-24T06:12:48.835Z,8.10
2019-02-24T06:15:17.294Z,7.67
2019-02-24T06:17:45.808Z,13.00
2019-02-24T06:20:14.274Z,4.08
2019-02-24T06:22:42.732Z,5.40
2019-02-24T06:25:11.333Z,5.73
2019-02-24T06:27:40.608Z,7.37
2019-02-24T06:30:09.278Z,6.73
2019-02-24T06:32:37.770Z,5.63
2019-02-24T06:35:07.932Z,7.00
2019-02-24T06:37:36.408Z,5.27
2019-02-24T06:40:06.840Z,8.47
2019-02-24T06:42:35.297Z,7.87
2019-02-24T06:45:04.487Z,5.03
2019-02-24T06:47:32.951Z,6.27
2019-02-24T06:50:01.429Z,8.07
2019-02-24T06:52:30.008Z,7.00
2019-02-24T06:54:58.473Z,6.20
2019-02-24T06:57:27.029Z,6.13
2019-02-24T06:59:55.501Z,10.40
2019-02-24T07:02:24.007Z,6.40
2019-02-24T07:04:52.458Z,5.40
2019-02-24T07:07:20.960Z,5.20
2019-02-24T07:09:49.457Z,7.87
2019-02-24T07:12:17.928Z,6.07
2019-02-24T07:14:46.430Z,5.40
2019-02-24T07:17:14.923Z,9.53
2019-02-24T07:19:43.368Z,7.43
2019-02-24T07:22:11.862Z,9.10
2019-02-24T07:24:40.456Z,11.73
2019-02-24T07:27:08.960Z,11.23
2019-02-24T07:29:37.440Z,13.10
2019-02-24T07:32:05.928Z,10.53
2019-02-24T07:34:34.466Z,7.00
2019-02-24T07:37:02.919Z,7.10
2019-02-24T07:39:31.418Z,11.90
2019-02-24T07:41:59.884Z,7.67
2019-02-24T07:44:28.357Z,8.50
2019-02-24T07:46:56.826Z,6.60
2019-02-24T07:49:25.380Z,5.30
2019-02-24T07:51:53.913Z,8.67
2019-02-24T07:54:22.409Z,4.73
2019-02-24T07:56:50.969Z,8.35
2019-02-24T07:59:19.510Z,7.83
2019-02-24T08:01:48.002Z,6.83
2019-02-24T08:04:16.590Z,5.50
2019-02-24T08:06:45.238Z,6.00
2019-02-24T08:09:13.766Z,7.57
2019-02-24T08:11:42.352Z,6.77
2019-02-24T08:14:10.858Z,6.73
2019-02-24T08:16:39.413Z,8.30
2019-02-24T08:19:07.886Z,6.47
2019-02-24T08:21:36.396Z,6.53
2019-02-24T08:24:04.852Z,8.80
2019-02-24T08:26:33.360Z,10.55
2019-02-24T08:29:02.127Z,16.10
2019-02-24T08:31:30.596Z,19.30
2019-02-24T08:33:59.149Z,8.30
2019-02-24T08:36:27.604Z,12.20
2019-02-24T08:38:56.084Z,17.80
2019-02-24T08:41:24.584Z,12.77
2019-02-24T08:43:53.148Z,7.65
2019-02-24T08:46:21.686Z,10.00
2019-02-24T08:48:50.223Z,7.87
2019-02-24T08:51:18.696Z,4.57
2019-02-24T08:53:47.692Z,6.72
2019-02-24T08:56:16.157Z,6.60
2019-02-24T08:58:44.692Z,9.27
2019-02-24T09:01:13.237Z,5.63
2019-02-24T09:03:41.728Z,8.58
2019-02-24T09:06:10.176Z,6.80
2019-02-24T09:08:38.735Z,6.40
2019-02-24T09:11:07.211Z,7.93
2019-02-24T09:13:35.750Z,7.13
2019-02-24T09:16:04.264Z,7.57
2019-02-24T09:18:32.780Z,11.60
2019-02-24T09:21:01.331Z,8.37
2019-02-24T09:23:29.854Z,9.03
2019-02-24T09:25:58.316Z,9.40
2019-02-24T09:28:26.877Z,6.40
2019-02-24T09:31:00.885Z,6.90
2019-02-24T09:33:25.571Z,5.97
2019-02-24T09:35:54.134Z,9.20
2019-02-24T09:38:22.636Z,7.90
2019-02-24T09:40:51.171Z,9.10
2019-02-24T09:43:19.695Z,7.17
2019-02-24T09:45:48.355Z,7.50
2019-02-24T09:48:16.807Z,7.27
2019-02-24T09:50:45.296Z,9.50
2019-02-24T09:53:13.785Z,8.80
2019-02-24T09:55:42.322Z,8.18
2019-02-24T09:58:10.815Z,18.20
2019-02-24T10:00:39.332Z,9.50
2019-02-24T10:03:07.859Z,9.10
2019-02-24T10:05:36.433Z,9.87
2019-02-24T10:08:05.054Z,7.97
2019-02-24T10:10:33.553Z,7.53
2019-02-24T10:13:02.052Z,5.30
2019-02-24T10:15:30.591Z,6.30
2019-02-24T10:17:59.073Z,8.47
2019-02-24T10:20:27.538Z,7.00
2019-02-24T10:22:56.108Z,7.90
2019-02-24T10:25:24.556Z,6.28
2019-02-24T10:27:53.541Z,7.83
2019-02-24T10:30:22.142Z,6.57
2019-02-24T10:32:50.700Z,9.50
2019-02-24T10:35:19.195Z,7.72
2019-02-24T10:37:47.696Z,7.10
2019-02-24T10:40:16.971Z,9.57
2019-02-24T10:42:45.465Z,8.33
2019-02-24T10:45:17.889Z,10.88
2019-02-24T10:47:46.536Z,8.53
2019-02-24T10:50:16.145Z,12.20
2019-02-24T10:52:44.718Z,10.00
2019-02-24T10:55:13.313Z,12.28
2019-02-24T10:57:41.998Z,7.17
2019-02-24T11:00:17.991Z,8.07
2019-02-24T11:02:46.645Z,9.20
2019-02-24T11:05:15.893Z,8.63
2019-02-24T11:07:44.589Z,7.83
2019-02-24T11:10:13.194Z,7.10
2019-02-24T11:12:41.717Z,9.30
2019-02-24T11:15:11.661Z,7.57
2019-02-24T11:17:40.428Z,8.80
2019-02-24T11:20:11.723Z,9.10
2019-02-24T11:22:40.208Z,7.63
2019-02-24T11:25:10.560Z,7.53
2019-02-24T11:27:39.016Z,7.97
2019-02-24T11:30:10.124Z,6.80
2019-02-24T11:32:38.687Z,9.60
2019-02-24T11:35:12.117Z,6.93
2019-02-24T11:37:40.685Z,9.93
2019-02-24T11:40:14.247Z,7.77
2019-02-24T11:42:42.750Z,14.37
2019-02-24T11:45:11.306Z,8.80
2019-02-24T11:47:39.764Z,11.53
2019-02-24T11:50:09.774Z,7.50
2019-02-24T11:52:38.493Z,10.40
2019-02-24T11:55:08.467Z,7.80
2019-02-24T11:57:37.162Z,7.07
2019-02-24T12:00:09.690Z,8.50
2019-02-24T12:02:38.272Z,6.10
2019-02-24T12:05:07.946Z,8.40
2019-02-24T12:07:36.508Z,6.80
2019-02-24T12:10:08.017Z,7.70
2019-02-24T12:12:36.541Z,8.47
2019-02-24T12:15:07.889Z,9.78
2019-02-24T12:17:36.458Z,11.00
2019-02-24T12:20:07.929Z,5.80
2019-02-24T12:22:36.546Z,9.10
2019-02-24T12:25:07.457Z,6.80
2019-02-24T12:27:36.018Z,5.27
2019-02-24T12:30:07.359Z,5.80
2019-02-24T12:32:35.823Z,10.77
2019-02-24T12:35:04.871Z,7.73
2019-02-24T12:37:33.472Z,8.73
2019-02-24T12:40:02.112Z,8.07
2019-02-24T12:42:30.656Z,9.27
2019-02-24T12:44:59.155Z,8.00
2019-02-24T12:47:27.674Z,9.33
2019-02-24T12:50:02.971Z,8.40
2019-02-24T12:52:26.400Z,8.90
2019-02-24T12:54:54.961Z,7.73
2019-02-24T12:57:23.419Z,11.73
2019-02-24T12:59:51.977Z,32.10
2019-02-24T13:02:20.513Z,22.43
2019-02-24T13:04:49.001Z,13.87
2019-02-24T13:07:17.506Z,11.37
2019-02-24T13:09:45.963Z,15.90
2019-02-24T13:12:14.425Z,11.97
2019-02-24T13:14:42.913Z,9.90
2019-02-24T13:17:11.373Z,7.70
2019-02-24T13:19:39.863Z,6.50
2019-02-24T13:22:08.395Z,6.58
2019-02-24T13:24:36.970Z,7.03
2019-02-24T13:27:05.751Z,8.50
2019-02-24T13:29:34.386Z,6.90
2019-02-24T13:32:02.946Z,8.90
2019-02-24T13:34:31.427Z,10.67
2019-02-24T13:37:00.542Z,7.17
2019-02-24T13:39:29.097Z,8.00
2019-02-24T13:41:57.581Z,8.47
2019-02-24T13:44:26.136Z,6.70
2019-02-24T13:46:54.622Z,7.93
2019-02-24T13:49:23.079Z,8.87
2019-02-24T13:51:51.613Z,6.80
2019-02-24T13:54:20.202Z,5.03
2019-02-24T13:56:48.780Z,5.67
2019-02-24T13:59:17.244Z,8.05
2019-02-24T14:01:45.780Z,8.03
2019-02-24T14:04:14.338Z,9.50
2019-02-24T14:06:42.940Z,5.70
2019-02-24T14:09:12.028Z,7.67
2019-02-24T14:11:40.574Z,8.60
2019-02-24T14:14:09.974Z,7.80
2019-02-24T14:16:38.606Z,12.10
2019-02-24T14:19:07.112Z,16.37
2019-02-24T14:21:35.639Z,6.80
2019-02-24T14:24:04.169Z,7.90
2019-02-24T14:26:32.663Z,7.17
2019-02-24T14:29:01.172Z,8.70
2019-02-24T14:31:30.297Z,6.80
2019-02-24T14:33:58.831Z,6.63
2019-02-24T14:36:27.314Z,7.20
2019-02-24T14:38:55.779Z,6.90
2019-02-24T14:41:24.303Z,10.20
2019-02-24T14:43:52.857Z,7.23
2019-02-24T14:46:21.341Z,5.90
2019-02-24T14:48:49.845Z,8.13
2019-02-24T14:51:18.456Z,8.33
2019-02-24T14:53:46.964Z,10.57
2019-02-24T14:56:15.482Z,6.55
2019-02-24T14:58:44.058Z,7.60
2019-02-24T15:01:12.564Z,6.67
2019-02-24T15:03:41.071Z,10.03
2019-02-24T15:06:10.011Z,9.80
2019-02-24T15:08:38.507Z,6.08
2019-02-24T15:11:07.070Z,5.80
2019-02-24T15:13:35.601Z,5.70
2019-02-24T15:16:04.165Z,8.57
2019-02-24T15:23:04.038Z,9.47
2019-02-24T15:25:32.548Z,7.57
2019-02-24T15:28:01.048Z,8.90
2019-02-24T15:30:34.707Z,7.10
2019-02-24T15:33:03.197Z,5.83
2019-02-24T15:35:31.783Z,7.97
2019-02-24T15:38:00.470Z,12.20
2019-02-24T15:40:28.920Z,6.97
2019-02-24T15:42:57.482Z,9.20
2019-02-24T15:45:26.044Z,9.60
2019-02-24T15:47:54.609Z,7.90
2019-02-24T15:50:23.076Z,8.70
2019-02-24T15:52:51.598Z,5.47
2019-02-24T15:55:20.082Z,8.18
2019-02-24T15:57:48.568Z,7.00
2019-02-24T16:00:18.862Z,6.07
2019-02-24T16:02:47.370Z,6.17
2019-02-24T16:05:15.993Z,8.00
2019-02-24T16:07:44.553Z,6.10
2019-02-24T16:10:17.638Z,5.67
2019-02-24T16:12:46.195Z,7.07
2019-02-24T16:15:19.268Z,5.67
2019-02-24T16:17:47.830Z,5.58
2019-02-24T16:20:22.056Z,5.92
2019-02-24T16:22:50.670Z,15.43
2019-02-24T16:25:19.171Z,8.08
2019-02-24T16:27:47.662Z,6.83
2019-02-24T16:30:16.787Z,5.28
2019-02-24T16:32:45.393Z,8.83
2019-02-24T16:35:15.687Z,5.00
2019-02-24T16:37:44.214Z,39.42
2019-02-24T16:40:18.880Z,53.20
2019-02-24T16:42:47.489Z,26.43
2019-02-24T16:45:16.756Z,8.43
2019-02-24T16:47:45.562Z,10.30
2019-02-24T16:50:16.437Z,5.40
2019-02-24T16:52:45.008Z,6.70
2019-02-24T16:55:17.526Z,13.10
2019-02-24T16:57:46.160Z,26.43
2019-02-24T17:00:25.651Z,16.87
2019-02-24T17:02:54.178Z,10.83
2019-02-24T17:05:22.737Z,13.48
2019-02-24T17:07:51.254Z,16.03
2019-02-24T17:10:24.282Z,44.77
2019-02-24T17:12:52.775Z,46.40
2019-02-24T17:15:21.432Z,52.37
2019-02-24T17:17:49.914Z,74.03
2019-02-24T17:20:20.381Z,72.10
2019-02-24T17:22:49.028Z,116.13
2019-02-24T17:25:17.677Z,100.72
2019-02-24T17:27:46.202Z,32.67
2019-02-24T17:30:17.623Z,18.70
2019-02-24T17:32:46.145Z,14.18
2019-02-24T17:35:14.764Z,12.47
2019-02-24T17:37:43.265Z,7.57
2019-02-24T17:40:14.312Z,8.80
2019-02-24T17:42:42.981Z,6.43
2019-02-24T17:45:13.586Z,8.73
2019-02-24T17:47:42.300Z,6.30
2019-02-24T17:50:12.802Z,7.07
2019-02-24T17:52:41.338Z,8.63
2019-02-24T17:55:11.994Z,11.83
2019-02-24T17:57:40.569Z,9.40
2019-02-24T18:00:27.440Z,9.70
2019-02-24T18:02:56.007Z,7.83
2019-02-24T18:05:24.625Z,12.23
2019-02-24T18:07:53.174Z,16.73
2019-02-24T18:10:21.785Z,12.90
2019-02-24T18:12:50.352Z,8.60
2019-02-24T18:15:18.896Z,11.90
2019-02-24T18:17:47.529Z,8.73
2019-02-24T18:20:20.431Z,61.65
2019-02-24T18:22:49.355Z,63.40
2019-02-24T18:25:18.820Z,74.80
2019-02-24T18:27:47.391Z,68.57
2019-02-24T18:30:27.816Z,74.27
2019-02-24T18:32:56.317Z,38.77
2019-02-24T18:35:24.921Z,17.50
2019-02-24T18:37:53.563Z,10.73
2019-02-24T18:40:22.315Z,10.93
2019-02-24T18:42:59.747Z,8.30
2019-02-24T18:45:21.286Z,7.20
2019-02-24T18:47:49.978Z,8.80
2019-02-24T18:50:19.334Z,6.80
2019-02-24T18:52:48.624Z,10.20
2019-02-24T18:55:18.181Z,9.10
2019-02-24T18:57:46.739Z,9.20
2019-02-24T19:00:22.712Z,7.53
2019-02-24T19:02:51.364Z,11.63
2019-02-24T19:05:20.012Z,10.60
2019-02-24T19:07:48.658Z,26.40
2019-02-24T19:10:18.713Z,28.90
2019-02-24T19:12:47.263Z,16.17
2019-02-24T19:15:17.521Z,14.50
2019-02-24T19:17:46.124Z,17.57
2019-02-24T19:20:17.254Z,26.13
2019-02-24T19:22:45.855Z,20.03
2019-02-24T19:25:14.442Z,17.65
2019-02-24T19:27:43.046Z,13.57
2019-02-24T19:30:14.390Z,11.03
2019-02-24T19:32:42.960Z,27.40
2019-02-24T19:35:13.071Z,27.32
2019-02-24T19:37:41.684Z,27.10
2019-02-24T19:40:12.711Z,31.13
2019-02-24T19:42:41.472Z,23.27
2019-02-24T19:45:12.682Z,20.40
2019-02-24T19:47:41.285Z,21.10
2019-02-24T19:50:12.249Z,12.83
2019-02-24T19:52:40.794Z,20.30
2019-02-24T19:55:10.838Z,21.70
2019-02-24T19:57:39.408Z,17.07
2019-02-24T20:00:13.725Z,22.80
2019-02-24T20:02:42.418Z,26.10
2019-02-24T20:05:12.573Z,15.85
2019-02-24T20:07:41.202Z,11.57
2019-02-24T20:10:11.823Z,15.93
2019-02-24T20:12:40.323Z,13.63
2019-02-24T20:15:13.773Z,12.18
2019-02-24T20:17:42.393Z,14.37
2019-02-24T20:20:13.212Z,23.95
2019-02-24T20:22:41.689Z,25.20
2019-02-24T20:25:12.797Z,16.00
2019-02-24T20:27:41.332Z,13.83
2019-02-24T20:30:30.015Z,9.83
2019-02-24T20:32:58.610Z,14.10
2019-02-24T20:35:27.146Z,11.27
2019-02-24T20:37:55.698Z,15.07
2019-02-24T20:40:25.183Z,13.20
2019-02-24T20:42:53.760Z,9.83
2019-02-24T20:45:23.333Z,11.00
2019-02-24T20:47:53.195Z,11.50
2019-02-24T20:50:24.728Z,11.30
2019-02-24T20:52:53.304Z,11.03
2019-02-24T20:55:21.871Z,9.10
2019-02-24T20:57:50.477Z,11.33
2019-02-24T21:00:30.715Z,10.35
2019-02-24T21:03:01.272Z,9.03
2019-02-24T21:05:30.043Z,9.70
2019-02-24T21:07:58.604Z,14.40
2019-02-24T21:10:27.075Z,10.30
2019-02-24T21:12:55.600Z,9.73
2019-02-24T21:15:24.974Z,10.38
2019-02-24T21:17:53.437Z,9.27
2019-02-24T21:20:27.342Z,11.03
2019-02-24T21:22:55.923Z,16.17
2019-02-24T21:25:24.469Z,12.63
2019-02-24T21:27:53.046Z,11.30
2019-02-24T21:30:21.720Z,11.70
2019-02-24T21:32:50.373Z,10.70
2019-02-24T21:35:18.990Z,10.35
2019-02-24T21:37:47.627Z,11.57
2019-02-24T21:40:19.708Z,12.18
2019-02-24T21:42:48.284Z,12.43
2019-02-24T21:45:21.952Z,13.90
2019-02-24T21:47:50.463Z,13.90
2019-02-24T21:50:19.148Z,12.43
2019-02-24T21:52:47.817Z,15.40
2019-02-24T21:55:16.424Z,14.75
2019-02-24T21:57:44.937Z,12.20
2019-02-24T22:00:16.524Z,11.90
2019-02-24T22:02:45.058Z,13.48
2019-02-24T22:05:13.763Z,14.80
2019-02-24T22:07:42.313Z,12.23
2019-02-24T22:10:17.080Z,19.37
2019-02-24T22:12:45.701Z,21.43
2019-02-24T22:15:21.822Z,17.37
2019-02-24T22:17:50.358Z,18.27
2019-02-24T22:20:18.996Z,18.93
2019-02-24T22:22:47.632Z,17.30
2019-02-24T22:25:16.842Z,15.08
2019-02-24T22:27:45.547Z,20.00
2019-02-24T22:30:16.627Z,12.57
2019-02-24T22:32:45.230Z,16.00
2019-02-24T22:35:13.925Z,15.20
2019-02-24T22:37:42.375Z,15.38
2019-02-24T22:40:12.597Z,10.47
2019-02-24T22:42:41.351Z,12.47
2019-02-24T22:45:12.698Z,12.17
2019-02-24T22:47:41.259Z,12.80
2019-02-24T22:50:10.360Z,16.20
2019-02-24T22:52:38.955Z,11.93
2019-02-24T22:55:10.146Z,12.50
2019-02-24T22:57:38.607Z,11.15
2019-02-24T23:00:21.819Z,17.98
2019-02-24T23:02:50.666Z,13.57
2019-02-24T23:05:19.366Z,15.10
2019-02-24T23:07:49.823Z,12.23
2019-02-24T23:10:18.264Z,14.73
2019-02-24T23:12:46.792Z,11.47
2019-02-24T23:15:15.620Z,15.20
2019-02-24T23:17:44.100Z,15.50
2019-02-24T23:20:12.722Z,12.60
2019-02-24T23:22:42.174Z,12.40
2019-02-24T23:25:10.782Z,14.23
2019-02-24T23:27:39.338Z,10.93
2019-02-24T23:30:09.751Z,10.03
2019-02-24T23:32:38.206Z,12.53
2019-02-24T23:35:07.411Z,11.27
2019-02-24T23:37:35.993Z,12.13
2019-02-24T23:40:07.147Z,13.63
2019-02-24T23:42:35.615Z,10.93
2019-02-24T23:45:10.451Z,18.93
2019-02-24T23:47:39.157Z,15.63
2019-02-24T23:50:10.629Z,15.77
2019-02-24T23:52:39.109Z,15.58
2019-02-24T23:55:08.610Z,15.47
2019-02-24T23:57:37.185Z,14.50
